Terminal Aerodrome Forecast
Issued by NWS Tampa Bay Area, FL

Home | Current Version | Previous Version | Text Only | Print | Product List | Glossary On
Versions: 1 2 3 4 5 6 7 8 9 10 11 12 13 14
000
FTUS42 KTBW 301121
TAFSRQ
TAF
KSRQ 301121Z 3012/0112 12011KT P6SM FEW015 SCT025 BKN060
     FM301500 14016G22KT P6SM SCT030 BKN250
     FM302000 18015G24KT P6SM SCT040 SCT250
     FM010100 14011KT P6SM FEW050 SCT250=

USA.gov is the U.S. government's official web portal to all federal, state and local government web resources and services.